createdAt,value
2019-05-28T00:01:32.905Z,84.44
2019-05-28T00:06:38.624Z,87.38
2019-05-28T00:11:43.911Z,88.06
2019-05-28T00:16:49.499Z,87.24
2019-05-28T00:21:54.864Z,90.00
2019-05-28T00:27:00.120Z,90.11
2019-05-28T00:32:05.982Z,88.95
2019-05-28T00:37:13.492Z,87.24
2019-05-28T00:42:19.038Z,88.90
2019-05-28T00:47:24.310Z,88.72
2019-05-28T00:52:29.665Z,88.02
2019-05-28T00:57:35.107Z,85.10
2019-05-28T01:02:42.931Z,85.00
2019-05-28T01:07:50.463Z,84.94
2019-05-28T01:12:55.974Z,90.12
2019-05-28T01:18:01.739Z,91.42
2019-05-28T01:23:07.090Z,91.18
2019-05-28T01:28:12.445Z,92.01
2019-05-28T01:33:17.718Z,92.46
2019-05-28T01:38:23.126Z,92.21
2019-05-28T01:43:29.007Z,92.22
2019-05-28T01:48:34.241Z,92.01
2019-05-28T01:53:39.534Z,89.47
2019-05-28T01:58:44.756Z,91.13
2019-05-28T02:03:50.105Z,90.38
2019-05-28T02:08:55.419Z,88.54
2019-05-28T02:14:00.782Z,89.09
2019-05-28T02:19:06.110Z,90.00
2019-05-28T02:24:11.514Z,89.72
2019-05-28T02:29:16.656Z,89.69
2019-05-28T02:34:22.993Z,89.49
2019-05-28T02:39:28.398Z,88.92
2019-05-28T02:44:35.992Z,87.61
2019-05-28T02:49:41.280Z,86.92
2019-05-28T02:54:46.620Z,87.69
2019-05-28T02:59:53.616Z,87.77
2019-05-28T03:05:01.650Z,88.47
2019-05-28T03:10:08.526Z,89.16
2019-05-28T03:15:14.247Z,89.45
2019-05-28T03:20:19.429Z,89.10
2019-05-28T03:25:25.331Z,89.01
2019-05-28T03:30:30.926Z,88.88
2019-05-28T03:35:38.536Z,89.01
2019-05-28T03:40:45.038Z,88.90
2019-05-28T03:45:50.433Z,89.99
2019-05-28T03:50:57.023Z,89.34
2019-05-28T03:56:02.664Z,90.92
2019-05-28T04:01:08.394Z,90.40
2019-05-28T04:06:13.600Z,90.78
2019-05-28T04:11:18.925Z,88.72
2019-05-28T04:16:24.972Z,87.83
2019-05-28T04:21:30.110Z,90.01
2019-05-28T04:26:35.507Z,89.59
2019-05-28T04:31:40.666Z,89.39
2019-05-28T04:36:45.899Z,89.37
2019-05-28T04:41:51.117Z,90.75
2019-05-28T04:46:56.412Z,91.37
2019-05-28T04:52:01.858Z,92.18
2019-05-28T04:57:07.427Z,92.80
2019-05-28T05:02:13.933Z,89.92
2019-05-28T05:07:19.351Z,90.76
2019-05-28T05:12:24.685Z,91.27
2019-05-28T05:17:30.859Z,92.48
2019-05-28T05:22:36.098Z,91.62
2019-05-28T05:27:41.370Z,92.51
2019-05-28T05:32:47.199Z,91.93
2019-05-28T05:37:52.751Z,92.71
2019-05-28T05:42:57.983Z,93.05
2019-05-28T05:48:03.963Z,92.24
2019-05-28T05:53:09.607Z,91.61
2019-05-28T05:58:15.266Z,91.72
2019-05-28T06:03:39.215Z,91.66
2019-05-28T06:08:27.645Z,92.01
2019-05-28T06:13:34.662Z,91.14
2019-05-28T06:18:39.859Z,90.27
2019-05-28T06:23:45.027Z,90.47
2019-05-28T06:28:50.269Z,88.78
2019-05-28T06:33:57.535Z,86.64
2019-05-28T06:39:03.047Z,87.18
2019-05-28T06:44:10.551Z,85.92
2019-05-28T06:49:17.683Z,87.38
2019-05-28T06:54:22.895Z,85.77
2019-05-28T06:59:28.150Z,87.86
2019-05-28T07:04:33.691Z,87.36
2019-05-28T07:09:38.984Z,90.22
2019-05-28T07:14:47.614Z,88.32
2019-05-28T07:19:55.654Z,89.25
2019-05-28T07:25:00.909Z,87.63
2019-05-28T07:30:09.731Z,86.49
2019-05-28T07:35:16.544Z,85.33
2019-05-28T07:40:30.926Z,86.55
2019-05-28T07:45:28.708Z,85.82
2019-05-28T07:50:33.884Z,85.50
2019-05-28T07:55:39.014Z,83.24
2019-05-28T08:00:45.200Z,85.58
2019-05-28T08:05:51.265Z,84.65
2019-05-28T08:10:56.564Z,80.95
2019-05-28T08:16:18.093Z,81.09
2019-05-28T08:21:17.418Z,82.26
2019-05-28T08:26:23.426Z,81.97
2019-05-28T08:31:30.808Z,81.24
2019-05-28T08:36:35.950Z,79.12
2019-05-28T08:41:41.353Z,80.07
2019-05-28T08:46:47.436Z,80.25
2019-05-28T08:51:59.897Z,80.40
2019-05-28T08:57:05.094Z,80.04
2019-05-28T09:02:27.312Z,80.43
2019-05-28T09:07:19.305Z,79.83
2019-05-28T09:12:25.849Z,80.22
2019-05-28T09:17:34.274Z,80.22
2019-05-28T09:22:39.527Z,81.34
2019-05-28T09:27:45.187Z,79.74
2019-05-28T09:32:50.962Z,80.86
2019-05-28T09:37:56.324Z,79.74
2019-05-28T09:43:01.610Z,78.64
2019-05-28T09:48:06.904Z,82.87
2019-05-28T09:53:12.498Z,80.05
2019-05-28T09:58:19.133Z,79.43
2019-05-28T10:03:24.378Z,78.85
2019-05-28T10:08:30.103Z,79.72
2019-05-28T10:13:40.939Z,78.20
2019-05-28T10:18:44.243Z,77.53
2019-05-28T10:23:49.807Z,78.87
2019-05-28T10:28:55.866Z,78.23
2019-05-28T10:34:01.874Z,80.01
2019-05-28T10:39:08.613Z,80.11
2019-05-28T10:44:13.936Z,77.42
2019-05-28T10:49:19.382Z,76.10
2019-05-28T10:54:24.657Z,74.23
2019-05-28T10:59:29.797Z,76.67
2019-05-28T11:04:38.006Z,79.79
2019-05-28T11:09:43.157Z,72.96
2019-05-28T11:14:48.367Z,74.61
2019-05-28T11:19:53.936Z,72.70
2019-05-28T11:24:59.212Z,71.34
2019-05-28T11:30:06.993Z,71.38
2019-05-28T11:35:15.523Z,71.92
2019-05-28T11:40:21.578Z,73.50
2019-05-28T11:45:27.110Z,71.95
2019-05-28T11:50:32.609Z,70.49
2019-05-28T11:55:37.863Z,69.44
2019-05-28T12:00:43.067Z,69.35
2019-05-28T12:05:48.298Z,67.48
2019-05-28T12:10:53.626Z,64.14
2019-05-28T12:15:58.965Z,64.69
2019-05-28T12:21:04.398Z,64.51
2019-05-28T12:26:09.720Z,64.31
2019-05-28T12:31:14.836Z,64.13
2019-05-28T12:36:20.344Z,63.65
2019-05-28T12:41:25.472Z,63.31
2019-05-28T12:46:31.749Z,60.75
2019-05-28T12:51:39.265Z,63.85
2019-05-28T12:56:45.694Z,65.27
2019-05-28T13:01:50.850Z,63.62
2019-05-28T13:06:56.263Z,64.26
2019-05-28T13:12:02.490Z,65.16
2019-05-28T13:17:07.781Z,64.92
2019-05-28T13:22:15.684Z,67.05
2019-05-28T13:27:22.005Z,66.86
2019-05-28T13:32:28.763Z,67.87
2019-05-28T13:37:33.983Z,66.52
2019-05-28T13:42:39.127Z,67.74
2019-05-28T13:47:44.509Z,65.65
2019-05-28T13:52:50.212Z,67.56
2019-05-28T13:57:56.469Z,66.47
2019-05-28T14:03:01.762Z,66.25
2019-05-28T14:08:07.067Z,65.42
2019-05-28T14:13:15.447Z,65.85
2019-05-28T14:18:20.607Z,65.04
2019-05-28T14:23:26.076Z,63.24
2019-05-28T14:28:31.529Z,65.02
2019-05-28T14:33:36.786Z,65.29
2019-05-28T14:38:42.217Z,66.12
2019-05-28T14:43:49.086Z,64.90
2019-05-28T14:48:54.724Z,65.46
2019-05-28T14:54:00.316Z,67.75
2019-05-28T14:59:06.678Z,65.42
2019-05-28T15:04:12.867Z,66.50
2019-05-28T15:09:21.276Z,66.77
2019-05-28T15:14:26.227Z,66.96
2019-05-28T15:19:31.558Z,64.82
2019-05-28T15:24:37.300Z,66.25
2019-05-28T15:29:43.790Z,66.60
2019-05-28T15:34:49.006Z,64.46
2019-05-28T15:39:56.336Z,64.98
2019-05-28T15:45:02.265Z,66.53
2019-05-28T15:50:08.253Z,67.26
2019-05-28T15:55:13.919Z,68.24
2019-05-28T16:00:22.243Z,66.85
2019-05-28T16:05:27.546Z,68.81
2019-05-28T16:10:34.299Z,68.18
2019-05-28T16:15:39.563Z,69.09
2019-05-28T16:20:45.027Z,68.75
2019-05-28T16:25:50.695Z,68.86
2019-05-28T16:31:11.224Z,69.37
2019-05-28T16:36:06.674Z,71.54
2019-05-28T16:41:12.130Z,73.34
2019-05-28T16:46:17.283Z,75.03
2019-05-28T16:51:24.981Z,76.82
2019-05-28T16:56:30.654Z,76.28
2019-05-28T17:01:35.790Z,77.26
2019-05-28T17:06:40.980Z,76.98
2019-05-28T17:11:46.497Z,77.47
2019-05-28T17:16:52.017Z,78.88
2019-05-28T17:21:57.859Z,79.42
2019-05-28T17:27:03.860Z,79.30
2019-05-28T17:32:09.423Z,79.00
2019-05-28T17:37:14.624Z,78.83
2019-05-28T17:42:20.140Z,78.56
2019-05-28T17:47:25.386Z,77.43
2019-05-28T17:52:30.669Z,76.51
2019-05-28T17:57:37.300Z,76.66
2019-05-28T18:02:42.554Z,75.76
2019-05-28T18:07:47.880Z,75.64
2019-05-28T18:12:53.315Z,75.08
2019-05-28T18:17:58.618Z,74.18
2019-05-28T18:23:04.009Z,74.30
2019-05-28T18:28:09.534Z,74.93
2019-05-28T18:33:16.810Z,75.11
2019-05-28T18:38:22.051Z,74.22
2019-05-28T18:43:27.897Z,73.91
2019-05-28T18:48:33.147Z,74.93
2019-05-28T18:53:38.893Z,74.19
2019-05-28T18:58:44.224Z,74.63
2019-05-28T19:03:49.608Z,75.21
2019-05-28T19:08:54.751Z,75.17
2019-05-28T19:14:00.042Z,75.14
2019-05-28T19:19:05.331Z,75.32
2019-05-28T19:24:10.620Z,75.48
2019-05-28T19:29:16.018Z,75.24
2019-05-28T19:34:21.661Z,75.87
2019-05-28T19:39:28.933Z,75.68
2019-05-28T19:44:35.588Z,76.58
2019-05-28T19:49:40.877Z,76.46
2019-05-28T19:54:48.484Z,75.89
2019-05-28T19:59:56.802Z,75.87
2019-05-28T20:05:04.375Z,76.88
2019-05-28T20:10:09.801Z,76.52
2019-05-28T20:15:23.761Z,77.93
2019-05-28T20:20:28.211Z,76.92
2019-05-28T20:25:33.467Z,78.07
2019-05-28T20:30:40.559Z,77.08
2019-05-28T20:35:45.762Z,76.21
2019-05-28T20:40:50.953Z,76.04
2019-05-28T20:45:56.599Z,76.26
2019-05-28T20:51:09.710Z,75.87
2019-05-28T20:56:10.077Z,76.55
2019-05-28T21:01:15.687Z,80.88
2019-05-28T21:06:21.286Z,80.82
2019-05-28T21:11:26.521Z,80.12
2019-05-28T21:16:32.288Z,78.14
2019-05-28T21:21:37.516Z,78.66
2019-05-28T21:26:42.814Z,77.17
2019-05-28T21:31:48.850Z,80.22
2019-05-28T21:36:54.926Z,77.89
2019-05-28T21:42:01.763Z,77.84
2019-05-28T21:47:07.228Z,81.98
2019-05-28T21:52:12.431Z,80.82
2019-05-28T21:57:17.816Z,82.50
2019-05-28T22:02:23.379Z,81.49
2019-05-28T22:07:28.635Z,82.77
2019-05-28T22:12:34.839Z,82.72
2019-05-28T22:17:40.048Z,79.61
2019-05-28T22:22:45.242Z,80.38
2019-05-28T22:27:50.561Z,79.83
2019-05-28T22:32:56.118Z,80.94
2019-05-28T22:38:01.409Z,83.09
2019-05-28T22:43:06.874Z,81.32
2019-05-28T22:48:16.811Z,80.36
2019-05-28T22:53:19.231Z,80.16
2019-05-28T22:58:24.560Z,80.32
2019-05-28T23:03:29.835Z,80.70
2019-05-28T23:08:35.064Z,80.45
2019-05-28T23:13:46.914Z,80.16
2019-05-28T23:18:47.334Z,81.15
2019-05-28T23:23:52.464Z,83.71
2019-05-28T23:28:57.859Z,85.53
2019-05-28T23:34:04.315Z,87.28
2019-05-28T23:39:11.133Z,87.19
2019-05-28T23:44:16.681Z,87.13
2019-05-28T23:49:22.115Z,87.31
2019-05-28T23:54:27.746Z,87.85
2019-05-28T23:59:32.990Z,88.00
